Time;durP1;ratioP1;P1;durP2;ratioP2;P2;SDS_P1;SDS_P2;PMS_P1;PMS_P2;Temp;Humidity;BMP_temperature;BMP_pressure;BME280_temperature;BME280_humidity;BME280_pressure;Samples;Min_cycle;Max_cycle;Signal;HPM_P1;HPM_P2
2022/03/14 00:01:04;;;;;;;;;;;;;;;-1.51;87.62;101119.37;1764603;81;20508;-67
2022/03/14 00:03:39;;;;;;;;;;;;;;;-1.51;87.70;101118.85;1764714;81;20094;-67
2022/03/14 00:06:01;;;;;;;;;;;;;;;-1.51;87.92;101120.72;1763801;81;20417;-67
2022/03/14 00:08:31;;;;;;;;;;;;;;;-1.52;87.98;101117.70;1764715;81;20110;-67
2022/03/14 00:10:59;;;;;;;;;;;;;;;-1.53;88.20;101119.56;1765046;81;20429;-67
2022/03/14 00:13:29;;;;;;;;;;;;;;;-1.53;88.46;101122.26;1764733;81;20414;-67
2022/03/14 00:15:58;;;;;;;;;;;;;;;-1.50;88.65;101121.86;1764731;81;20468;-67
2022/03/14 00:18:27;;;;;;;;;;;;;;;-1.48;88.61;101120.32;1768992;80;20526;-66
2022/03/14 00:20:56;;;;;;;;;;;;;;;-1.45;88.59;101120.75;1794109;80;20478;-67
2022/03/14 00:23:24;;;;;;;;;;;;;;;-1.41;88.43;101117.98;1794225;80;21816;-67
2022/03/14 00:25:54;;;;;;;;;;;;;;;-1.38;88.20;101120.27;1794127;80;20153;-67
2022/03/14 00:28:23;;;;;;;;;;;;;;;-1.38;88.01;101118.09;1794114;80;20423;-65
2022/03/14 00:30:52;;;;;;;;;;;;;;;-1.40;88.18;101116.95;1794043;80;20112;-64
2022/03/14 00:33:19;;;;;;;;;;;;;;;-1.46;88.27;101123.12;1794239;80;20084;-64
2022/03/14 00:35:47;;;;;;;;;;;;;;;-1.50;88.39;101121.86;1794390;80;21257;-64
2022/03/14 00:38:16;;;;;;;;;;;;;;;-1.50;88.41;101121.86;1794116;80;20080;-64
2022/03/14 00:40:44;;;;;;;;;;;;;;;-1.45;88.62;101114.53;1794059;80;20148;-66
2022/03/14 00:43:12;;;;;;;;;;;;;;;-1.40;88.53;101120.16;1785734;80;20435;-67
2022/03/14 00:45:40;;;;;;;;;;;;;;;-1.39;88.58;101122.66;1776607;80;20122;-66
2022/03/14 00:48:07;;;;;;;;;;;;;;;-1.39;88.64;101123.17;1762959;81;21155;-66
2022/03/14 00:50:35;;;;;;;;;;;;;;;-1.40;88.69;101118.81;1762883;81;20094;-66
2022/03/14 00:53:02;;;;;;;;;;;;;;;-1.43;88.81;101120.04;1762796;81;20094;-67
2022/03/14 00:55:29;;;;;;;;;;;;;;;-1.45;88.93;101121.27;1763051;81;20406;-66
2022/03/14 00:57:56;;;;;;;;;;;;;;;-1.47;89.07;101120.12;1762821;81;20113;-66
2022/03/14 01:00:24;;;;;;;;;;;;;;;-1.48;89.26;101115.77;1762787;81;22054;-67
2022/03/14 01:02:52;;;;;;;;;;;;;;;-1.48;89.41;101118.45;1762789;81;20422;-67
2022/03/14 01:05:20;;;;;;;;;;;;;;;-1.47;89.54;101120.12;1762786;81;20098;-66
2022/03/14 01:07:47;;;;;;;;;;;;;;;-1.46;89.56;101113.70;1762859;81;20118;-66
2022/03/14 01:10:14;;;;;;;;;;;;;;;-1.43;89.56;101119.20;1762846;81;20118;-67
2022/03/14 01:12:42;;;;;;;;;;;;;;;-1.44;89.49;101125.63;1762878;81;21153;-66
2022/03/14 01:15:10;;;;;;;;;;;;;;;-1.47;89.37;101128.72;1762813;81;20094;-67
2022/03/14 01:17:37;;;;;;;;;;;;;;;-1.54;89.34;101120.59;1762759;81;20106;-67
2022/03/14 01:20:07;;;;;;;;;;;;;;;-1.56;89.42;101125.34;1763561;81;20082;-65
2022/03/14 01:22:34;;;;;;;;;;;;;;;-1.56;89.68;101124.52;1764166;81;20117;-64
2022/03/14 01:25:05;;;;;;;;;;;;;;;-1.54;89.79;101127.33;1764173;81;21314;-64
2022/03/14 01:27:33;;;;;;;;;;;;;;;-1.51;89.74;101124.75;1764159;81;20098;-64
2022/03/14 01:30:00;;;;;;;;;;;;;;;-1.52;89.65;101123.09;1764223;81;20098;-64
2022/03/14 01:32:27;;;;;;;;;;;;;;;-1.56;89.66;101125.34;1764209;81;20129;-64
2022/03/14 01:34:56;;;;;;;;;;;;;;;-1.59;89.79;101128.44;1764325;81;20417;-64
2022/03/14 01:37:22;;;;;;;;;;;;;;;-1.59;89.86;101133.82;1764063;81;21274;-64
2022/03/14 01:39:49;;;;;;;;;;;;;;;-1.61;89.90;101129.15;1764040;81;20516;-64
2022/03/14 01:42:18;;;;;;;;;;;;;;;-1.63;90.09;101132.55;1764204;81;20098;-65
2022/03/14 01:44:47;;;;;;;;;;;;;;;-1.61;90.38;101134.53;1764093;81;20091;-65
2022/03/14 01:47:15;;;;;;;;;;;;;;;-1.59;90.65;101136.52;1764249;81;20106;-65
2022/03/14 01:49:43;;;;;;;;;;;;;;;-1.51;90.81;101138.22;1764093;81;21199;-64
2022/03/14 01:52:11;;;;;;;;;;;;;;;-1.50;90.44;101136.68;1764008;81;20094;-64
2022/03/14 01:54:38;;;;;;;;;;;;;;;-1.50;90.52;101142.06;1764204;81;20082;-65
2022/03/14 01:57:05;;;;;;;;;;;;;;;-1.50;90.55;101138.02;1764117;81;20114;-65
2022/03/14 01:59:33;;;;;;;;;;;;;;;-1.48;90.50;101141.87;1764203;81;20086;-66
2022/03/14 02:02:01;;;;;;;;;;;;;;;-1.46;90.37;101143.33;1762297;81;21142;-66
2022/03/14 02:04:29;;;;;;;;;;;;;;;-1.46;90.35;101139.81;1763984;81;20094;-65
2022/03/14 02:06:57;;;;;;;;;;;;;;;-1.48;90.41;101149.43;1764168;81;20114;-64
2022/03/14 02:09:24;;;;;;;;;;;;;;;-1.49;90.59;101148.28;1763168;81;20082;-65
2022/03/14 02:12:01;;;;;;;;;;;;;;;-1.49;90.63;101151.81;1773712;80;20118;-66
2022/03/14 02:14:30;;;;;;;;;;;;;;;-1.50;90.48;101152.01;1776954;80;20124;-65
2022/03/14 02:16:57;;;;;;;;;;;;;;;-1.49;90.61;101160.41;1776383;80;20077;-66
2022/03/14 02:19:25;;;;;;;;;;;;;;;-1.48;90.52;101160.72;1780087;80;20094;-65
2022/03/14 02:21:52;;;;;;;;;;;;;;;-1.48;90.47;101162.07;1763548;81;20141;-65
2022/03/14 02:24:20;;;;;;;;;;;;;;;-1.50;90.35;101160.09;1763789;81;20130;-65
2022/03/14 02:26:48;;;;;;;;;;;;;;;-1.52;90.33;101164.84;1763616;81;21270;-65
2022/03/14 02:29:15;;;;;;;;;;;;;;;-1.53;90.38;101160.48;1763491;81;20086;-65
2022/03/14 02:31:45;;;;;;;;;;;;;;;-1.55;90.53;101163.38;1763618;81;20094;-65
2022/03/14 02:34:11;;;;;;;;;;;;;;;-1.56;90.66;101166.27;1763429;81;20098;-65
2022/03/14 02:36:39;;;;;;;;;;;;;;;-1.61;90.94;101168.20;1763561;81;20094;-65
2022/03/14 02:39:08;;;;;;;;;;;;;;;-1.62;91.02;101167.05;1763539;81;21178;-64
2022/03/14 02:41:36;;;;;;;;;;;;;;;-1.64;91.08;101164.55;1763637;81;20118;-64
2022/03/14 02:44:06;;;;;;;;;;;;;;;-1.63;91.21;101171.59;1763568;81;20095;-64
2022/03/14 02:46:38;;;;;;;;;;;;;;;-1.61;91.24;101171.41;1763659;81;20117;-64
2022/03/14 02:49:05;;;;;;;;;;;;;;;-1.60;91.23;101165.82;1763741;81;20118;-64
2022/03/14 02:51:35;;;;;;;;;;;;;;;-1.58;91.16;101171.02;1763649;81;21227;-65
2022/03/14 02:54:05;;;;;;;;;;;;;;;-1.61;91.12;101176.28;1763615;81;20249;-66
2022/03/14 02:56:31;;;;;;;;;;;;;;;-1.62;91.18;101174.61;1763506;81;20082;-71
2022/03/14 02:58:59;;;;;;;;;;;;;;;-1.63;91.24;101181.02;1763624;81;20114;-66
2022/03/14 03:01:26;;;;;;;;;;;;;;;-1.63;91.38;101172.95;1763610;81;20149;-66
2022/03/14 03:04:00;;;;;;;;;;;;;;;-1.64;91.44;101176.67;1763454;81;21157;-65
2022/03/14 03:06:24;;;;;;;;;;;;;;;-1.64;91.67;101177.18;1762483;81;20079;-65
2022/03/14 03:08:52;;;;;;;;;;;;;;;-1.66;91.83;101176.86;1763322;81;20149;-64
2022/03/14 03:11:22;;;;;;;;;;;;;;;-1.68;91.72;101176.73;1763414;81;20094;-65
2022/03/14 03:13:54;;;;;;;;;;;;;;;-1.71;91.77;101176.62;1767730;80;20100;-65
2022/03/14 03:16:19;;;;;;;;;;;;;;;-1.70;91.92;101176.10;1786178;79;21946;-65
2022/03/14 03:18:48;;;;;;;;;;;;;;;-1.68;92.02;101180.27;1781791;80;20148;-65
2022/03/14 03:21:19;;;;;;;;;;;;;;;-1.69;91.98;101176.42;1790576;79;20129;-65
2022/03/14 03:23:44;;;;;;;;;;;;;;;-1.70;92.10;101175.59;1763108;81;20106;-65
2022/03/14 03:26:13;;;;;;;;;;;;;;;-1.69;92.13;101183.16;1764080;81;20422;-65
2022/03/14 03:28:42;;;;;;;;;;;;;;;-1.69;92.21;101181.30;1767396;80;21298;-65
2022/03/14 03:31:11;;;;;;;;;;;;;;;-1.67;92.21;101179.23;1795638;80;20084;-65
2022/03/14 03:33:40;;;;;;;;;;;;;;;-1.66;92.15;101175.52;1796200;80;20092;-65
2022/03/14 03:36:07;;;;;;;;;;;;;;;-1.63;92.10;101184.23;1796067;80;20103;-65
2022/03/14 03:38:35;;;;;;;;;;;;;;;-1.63;91.94;101181.53;1796298;80;20443;-65
2022/03/14 03:41:03;;;;;;;;;;;;;;;-1.67;91.97;101186.48;1796069;80;21137;-65
2022/03/14 03:43:32;;;;;;;;;;;;;;;-1.70;92.02;101183.66;1796165;80;20084;-66
2022/03/14 03:46:00;;;;;;;;;;;;;;;-1.69;92.13;101192.06;1796225;80;20120;-66
2022/03/14 03:48:27;;;;;;;;;;;;;;;-1.64;92.18;101191.99;1796011;80;20143;-66
2022/03/14 03:50:54;;;;;;;;;;;;;;;-1.61;92.11;101195.12;1796119;80;20140;-66
2022/03/14 03:53:23;;;;;;;;;;;;;;;-1.61;91.69;101191.60;1796228;80;21157;-65
2022/03/14 03:55:50;;;;;;;;;;;;;;;-1.65;91.59;101196.55;1796028;80;20092;-65
2022/03/14 03:58:20;;;;;;;;;;;;;;;-1.67;91.51;101195.91;1796065;80;20120;-65
2022/03/14 04:00:51;;;;;;;;;;;;;;;-1.69;91.55;101192.58;1796179;80;20112;-65
2022/03/14 04:03:20;;;;;;;;;;;;;;;-1.70;91.52;101193.60;1788135;80;20119;-65
2022/03/14 04:05:49;;;;;;;;;;;;;;;-1.71;91.63;101199.50;1796276;80;21239;-65
2022/03/14 04:08:17;;;;;;;;;;;;;;;-1.70;91.51;101199.83;1795846;80;20487;-65
2022/03/14 04:10:45;;;;;;;;;;;;;;;-1.68;91.50;101200.46;1796177;80;20115;-65
2022/03/14 04:13:12;;;;;;;;;;;;;;;-1.68;91.30;101203.66;1796250;80;20107;-64
2022/03/14 04:15:49;;;;;;;;;;;;;;;-1.67;91.17;101202.64;1796080;80;20088;-64
2022/03/14 04:18:11;;;;;;;;;;;;;;;-1.65;91.14;101204.62;1795780;80;21209;-65
2022/03/14 04:20:41;;;;;;;;;;;;;;;-1.63;91.08;101203.91;1795948;79;20115;-65
2022/03/14 04:23:08;;;;;;;;;;;;;;;-1.61;90.81;101203.72;1796040;80;20176;-65
2022/03/14 04:25:36;;;;;;;;;;;;;;;-1.61;90.93;101209.94;1796157;80;20088;-65
2022/03/14 04:28:04;;;;;;;;;;;;;;;-1.58;91.09;101205.51;1796230;80;20079;-65
2022/03/14 04:30:32;;;;;;;;;;;;;;;-1.57;90.89;101210.37;1796032;80;21163;-65
2022/03/14 04:33:00;;;;;;;;;;;;;;;-1.57;90.76;101211.73;1796099;80;20415;-65
2022/03/14 04:35:27;;;;;;;;;;;;;;;-1.58;90.62;101209.55;1796139;80;20139;-65
2022/03/14 04:37:55;;;;;;;;;;;;;;;-1.58;90.55;101211.41;1796102;80;20096;-64
2022/03/14 04:40:22;;;;;;;;;;;;;;;-1.60;90.62;101215.64;1796268;80;20116;-64
2022/03/14 04:42:49;;;;;;;;;;;;;;;-1.60;90.59;101215.64;1795989;80;21226;-65
2022/03/14 04:45:16;;;;;;;;;;;;;;;-1.61;90.59;101218.02;1796196;80;20423;-65
2022/03/14 04:47:43;;;;;;;;;;;;;;;-1.63;90.68;101220.59;1796177;80;20116;-65
2022/03/14 04:50:10;;;;;;;;;;;;;;;-1.64;90.85;101218.41;1796128;80;20116;-65
2022/03/14 04:52:38;;;;;;;;;;;;;;;-1.64;91.00;101217.58;1796167;80;20475;-65
2022/03/14 04:55:05;;;;;;;;;;;;;;;-1.66;90.93;101214.56;1796062;79;21092;-66
2022/03/14 04:57:35;;;;;;;;;;;;;;;-1.64;90.98;101216.23;1796029;80;20136;-66
2022/03/14 05:00:05;;;;;;;;;;;;;;;-1.63;91.11;101220.59;1796101;80;20079;-66
2022/03/14 05:02:33;;;;;;;;;;;;;;;-1.63;91.04;101221.42;1796101;80;20112;-66
2022/03/14 05:05:00;;;;;;;;;;;;;;;-1.61;91.10;101224.75;1796193;80;20092;-66
2022/03/14 05:07:27;;;;;;;;;;;;;;;-1.57;91.23;101223.33;1796127;80;21253;-66
2022/03/14 05:09:54;;;;;;;;;;;;;;;-1.55;91.28;101219.09;1795892;80;20116;-66
2022/03/14 05:12:21;;;;;;;;;;;;;;;-1.53;91.34;101224.61;1796002;80;20107;-65
2022/03/14 05:14:52;;;;;;;;;;;;;;;-1.49;91.26;101227.74;1796015;80;20092;-65
2022/03/14 05:17:20;;;;;;;;;;;;;;;-1.47;91.04;101227.03;1795999;80;20092;-66
2022/03/14 05:19:48;;;;;;;;;;;;;;;-1.46;90.80;101224.14;1796479;79;21868;-66
2022/03/14 05:22:18;;;;;;;;;;;;;;;-1.41;90.80;101235.67;1790841;79;20156;-65
2022/03/14 05:24:46;;;;;;;;;;;;;;;-1.37;90.76;101239.64;1793188;79;20076;-66
2022/03/14 05:27:14;;;;;;;;;;;;;;;-1.32;90.57;101239.05;1794936;79;20158;-68
2022/03/14 05:29:41;;;;;;;;;;;;;;;-1.31;90.21;101242.07;1797500;79;20123;-67
2022/03/14 05:32:09;;;;;;;;;;;;;;;-1.28;90.04;101248.41;1789851;79;21181;-67
2022/03/14 05:34:37;;;;;;;;;;;;;;;-1.25;89.98;101246.16;1786088;79;20116;-67
2022/03/14 05:37:05;;;;;;;;;;;;;;;-1.20;90.03;101245.56;1796664;79;20082;-66
2022/03/14 05:39:33;;;;;;;;;;;;;;;-1.15;89.67;101247.13;1796655;80;20095;-66
2022/03/14 05:42:01;;;;;;;;;;;;;;;-1.11;88.68;101249.74;1796661;80;20130;-66
2022/03/14 05:44:28;;;;;;;;;;;;;;;-1.08;87.86;101254.73;1796558;80;21132;-67
2022/03/14 05:46:58;;;;;;;;;;;;;;;-1.05;87.60;101262.43;1796580;80;20151;-66
2022/03/14 05:49:25;;;;;;;;;;;;;;;-1.00;87.60;101254.58;1796661;80;20115;-66
2022/03/14 05:51:54;;;;;;;;;;;;;;;-0.97;86.97;101259.58;1796776;80;20440;-66
2022/03/14 05:54:23;;;;;;;;;;;;;;;-0.93;86.68;101257.31;1796745;80;20451;-66
2022/03/14 05:56:50;;;;;;;;;;;;;;;-0.87;86.61;101259.22;1796693;80;21254;-66
2022/03/14 05:59:17;;;;;;;;;;;;;;;-0.81;86.33;101261.95;1796307;80;20147;-65
2022/03/14 06:01:44;;;;;;;;;;;;;;;-0.77;85.53;101259.17;1796661;80;20084;-66
2022/03/14 06:04:11;;;;;;;;;;;;;;;-0.74;84.87;101256.08;1796497;80;20096;-66
2022/03/14 06:06:38;;;;;;;;;;;;;;;-0.70;84.59;101260.55;1796653;80;20116;-64
2022/03/14 06:09:06;;;;;;;;;;;;;;;-0.65;84.29;101255.91;1796638;80;20564;-67
2022/03/14 06:11:38;;;;;;;;;;;;;;;-0.59;83.79;101259.98;1796587;80;20144;-67
2022/03/14 06:14:06;;;;;;;;;;;;;;;-0.52;83.39;101254.07;1796564;80;20116;-65
2022/03/14 06:16:33;;;;;;;;;;;;;;;-0.44;83.02;101261.16;1796562;80;20447;-65
2022/03/14 06:19:02;;;;;;;;;;;;;;;-0.35;80.79;101259.95;1796561;80;20411;-67
2022/03/14 06:21:29;;;;;;;;;;;;;;;-0.33;79.58;101264.63;1785530;80;21229;-67
2022/03/14 06:23:58;;;;;;;;;;;;;;;-0.30;79.09;101264.22;1779995;80;20443;-68
2022/03/14 06:26:24;;;;;;;;;;;;;;;-0.27;78.07;101262.47;1779630;80;20423;-65
2022/03/14 06:28:51;;;;;;;;;;;;;;;-0.22;77.25;101261.34;1779287;80;20069;-65
2022/03/14 06:31:19;;;;;;;;;;;;;;;-0.16;76.45;101257.83;1779386;80;20440;-68
2022/03/14 06:33:49;;;;;;;;;;;;;;;-0.11;75.87;101263.45;1779317;80;21140;-68
2022/03/14 06:36:16;;;;;;;;;;;;;;;-0.05;73.89;101265.86;1773962;80;20086;-66
2022/03/14 06:38:43;;;;;;;;;;;;;;;-0.03;74.17;101267.31;1747603;81;20417;-64
2022/03/14 06:41:11;;;;;;;;;;;;;;;0.02;73.00;101261.27;1774496;80;20163;-64
2022/03/14 06:43:39;;;;;;;;;;;;;;;0.05;71.27;101255.45;1779699;80;20105;-65
2022/03/14 06:46:06;;;;;;;;;;;;;;;0.08;71.11;101255.56;1785693;80;21150;-67
2022/03/14 06:48:39;;;;;;;;;;;;;;;0.12;70.87;101255.47;1781397;80;20092;-68
2022/03/14 06:51:03;;;;;;;;;;;;;;;0.19;69.95;101256.31;1791620;80;20116;-74
2022/03/14 06:53:31;;;;;;;;;;;;;;;0.25;69.30;101250.92;1792274;80;20084;-80
2022/03/14 06:55:58;;;;;;;;;;;;;;;0.35;69.12;101262.67;1792960;80;20127;-82
2022/03/14 06:58:25;;;;;;;;;;;;;;;0.41;66.14;101265.06;1792493;80;21204;-82
2022/03/14 07:00:51;;;;;;;;;;;;;;;0.37;64.55;101267.87;1791369;80;20155;-77
2022/03/14 07:03:19;;;;;;;;;;;;;;;0.31;64.14;101271.70;1774674;80;20113;-76
2022/03/14 07:05:46;;;;;;;;;;;;;;;0.29;63.83;101277.00;1780608;80;20112;-77
2022/03/14 07:08:13;;;;;;;;;;;;;;;0.31;64.79;101278.98;1790537;80;20459;-82
2022/03/14 07:10:40;;;;;;;;;;;;;;;0.35;63.27;101276.17;1792319;80;21217;-70
2022/03/14 07:13:07;;;;;;;;;;;;;;;0.35;62.58;101274.83;1792259;80;20159;-72
2022/03/14 07:15:35;;;;;;;;;;;;;;;0.40;63.71;101279.09;1792390;80;32526;-69
2022/03/14 07:18:02;;;;;;;;;;;;;;;0.50;62.48;101273.28;1792249;80;20095;-67
2022/03/14 07:20:29;;;;;;;;;;;;;;;0.54;62.55;101268.60;1792228;80;20111;-70
2022/03/14 07:22:57;;;;;;;;;;;;;;;0.60;61.47;101265.56;1792422;80;21104;-72
2022/03/14 07:25:30;;;;;;;;;;;;;;;0.60;61.77;101277.72;1792238;80;20120;-71
2022/03/14 07:28:01;;;;;;;;;;;;;;;0.65;62.01;101277.92;1792134;80;20171;-68
2022/03/14 07:30:28;;;;;;;;;;;;;;;0.69;60.78;101275.64;1792354;80;20419;-68
2022/03/14 07:32:55;;;;;;;;;;;;;;;0.75;61.20;101266.70;1792377;80;20462;-68
2022/03/14 07:35:23;;;;;;;;;;;;;;;0.88;60.85;101275.62;1792371;80;21142;-69
2022/03/14 07:37:50;;;;;;;;;;;;;;;1.03;61.36;101277.27;1792121;80;20100;-69
2022/03/14 07:40:17;;;;;;;;;;;;;;;1.19;61.03;101274.91;1792322;80;20084;-69
2022/03/14 07:42:46;;;;;;;;;;;;;;;1.27;57.56;101268.45;1767949;80;20114;-68
2022/03/14 07:45:14;;;;;;;;;;;;;;;1.23;58.50;101276.67;1774818;80;20430;-68
2022/03/14 07:47:43;;;;;;;;;;;;;;;1.26;59.07;101274.90;1775206;80;21233;-72
2022/03/14 07:50:10;;;;;;;;;;;;;;;1.30;58.19;101278.32;1780136;80;20427;-68
2022/03/14 07:52:39;;;;;;;;;;;;;;;1.37;57.58;101279.66;1779775;80;20144;-69
2022/03/14 07:55:07;;;;;;;;;;;;;;;1.37;57.86;101279.66;1781935;80;20463;-68
2022/03/14 07:57:34;;;;;;;;;;;;;;;1.36;57.29;101276.64;1767986;80;20163;-69
2022/03/14 08:00:05;;;;;;;;;;;;;;;1.36;57.68;101281.22;1786527;79;20109;-69
2022/03/14 08:02:35;;;;;;;;;;;;;;;1.48;57.44;101280.34;1779122;80;20109;-68
2022/03/14 08:05:08;;;;;;;;;;;;;;;1.61;55.81;101278.12;1779124;80;20069;-69
2022/03/14 08:07:42;;;;;;;;;;;;;;;1.65;55.14;101284.23;1779260;80;20081;-68
2022/03/14 08:10:09;;;;;;;;;;;;;;;1.71;56.46;101279.02;1779379;80;20089;-68
2022/03/14 08:12:51;;;;;;;;;;;;;;;1.79;55.33;101283.63;1780667;80;20108;-69
2022/03/14 08:15:30;;;;;;;;;;;;;;;1.86;54.78;101283.07;1778065;80;20096;-68
2022/03/14 08:18:01;;;;;;;;;;;;;;;1.82;54.57;101280.48;1781930;80;20143;-68
2022/03/14 08:20:29;;;;;;;;;;;;;;;1.81;54.58;101277.47;1785941;80;20099;-68
2022/03/14 08:22:57;;;;;;;;;;;;;;;2.13;54.98;101270.21;1785177;79;20097;-67
2022/03/14 08:25:26;;;;;;;;;;;;;;;2.44;53.67;101270.70;1794328;79;21312;-68
2022/03/14 08:27:54;;;;;;;;;;;;;;;2.83;52.64;101266.83;1799343;79;20418;-68
2022/03/14 08:30:23;;;;;;;;;;;;;;;3.33;51.48;101272.66;1798732;79;20119;-68
2022/03/14 08:32:51;;;;;;;;;;;;;;;3.52;49.87;101272.41;1798015;79;20123;-68
2022/03/14 08:35:20;;;;;;;;;;;;;;;3.53;50.59;101275.42;1800418;79;20081;-67
2022/03/14 08:37:50;;;;;;;;;;;;;;;3.79;49.10;101276.16;1796931;79;21264;-67
2022/03/14 08:40:20;;;;;;;;;;;;;;;4.10;48.47;101269.11;1797153;79;20131;-69
2022/03/14 08:42:46;;;;;;;;;;;;;;;4.38;48.72;101263.05;1800034;79;20183;-68
2022/03/14 08:45:14;;;;;;;;;;;;;;;4.60;48.59;101261.44;1798891;79;20167;-68
2022/03/14 08:47:41;;;;;;;;;;;;;;;4.55;46.12;101261.84;1800029;79;20119;-69
2022/03/14 08:50:10;;;;;;;;;;;;;;;4.55;46.59;101265.39;1797822;79;21155;-69
2022/03/14 08:52:37;;;;;;;;;;;;;;;4.84;47.11;101260.08;1798249;79;20466;-69
2022/03/14 08:55:06;;;;;;;;;;;;;;;5.27;46.09;101257.78;1799186;79;20171;-69
2022/03/14 08:57:33;;;;;;;;;;;;;;;5.51;45.08;101260.46;1797789;79;20068;-69
2022/03/14 09:00:01;;;;;;;;;;;;;;;5.52;43.71;101252.58;1798836;79;20127;-68
2022/03/14 09:02:29;;;;;;;;;;;;;;;5.54;44.60;101249.91;1797852;79;21134;-68
2022/03/14 09:04:56;;;;;;;;;;;;;;;5.67;42.92;101253.43;1798811;79;20457;-68
2022/03/14 09:07:27;;;;;;;;;;;;;;;5.56;43.11;101245.58;1799743;79;20095;-68
2022/03/14 09:09:54;;;;;;;;;;;;;;;5.50;43.10;101241.92;1789618;79;20430;-69
2022/03/14 09:12:22;;;;;;;;;;;;;;;5.51;43.36;101243.58;1803512;79;20111;-69
2022/03/14 09:14:50;;;;;;;;;;;;;;;5.52;43.20;101246.59;1803447;79;21114;-68
2022/03/14 09:17:17;;;;;;;;;;;;;;;5.64;43.97;101241.95;1803400;79;20131;-68
2022/03/14 09:19:47;;;;;;;;;;;;;;;5.95;43.26;101246.10;1803549;79;20426;-69
2022/03/14 09:22:16;;;;;;;;;;;;;;;6.27;43.09;101236.87;1796451;79;20174;-68
2022/03/14 09:24:45;;;;;;;;;;;;;;;6.39;42.01;101238.14;1792120;80;20088;-69
2022/03/14 09:27:15;;;;;;;;;;;;;;;6.34;42.15;101232.63;1764398;80;20708;-69
2022/03/14 09:29:42;;;;;;;;;;;;;;;6.42;42.10;101236.81;1791549;80;20123;-69
2022/03/14 09:32:10;;;;;;;;;;;;;;;6.47;41.46;101230.91;1791759;80;20112;-69
2022/03/14 09:34:38;;;;;;;;;;;;;;;6.42;41.44;101234.91;1791488;80;20131;-68
2022/03/14 09:37:07;;;;;;;;;;;;;;;6.39;40.86;101233.22;1791605;80;20136;-68
2022/03/14 09:39:38;;;;;;;;;;;;;;;6.41;41.86;101218.80;1791725;80;21155;-67
2022/03/14 09:42:04;;;;;;;;;;;;;;;6.47;40.82;101226.81;1790220;80;20080;-68
2022/03/14 09:44:32;;;;;;;;;;;;;;;6.29;41.61;101225.19;1791890;80;20137;-67
2022/03/14 09:47:00;;;;;;;;;;;;;;;6.23;41.54;101223.97;1791455;80;20116;-67
2022/03/14 09:49:27;;;;;;;;;;;;;;;6.44;41.97;101226.48;1791643;80;20141;-65
2022/03/14 09:51:55;;;;;;;;;;;;;;;6.82;41.54;101217.00;1791674;80;21231;-65
2022/03/14 09:54:23;;;;;;;;;;;;;;;6.97;40.56;101209.55;1790854;80;20112;-66
2022/03/14 09:56:52;;;;;;;;;;;;;;;6.98;40.34;101212.56;1770093;80;20127;-69
2022/03/14 09:59:22;;;;;;;;;;;;;;;6.94;40.25;101214.97;1780690;80;20140;-70
2022/03/14 10:01:48;;;;;;;;;;;;;;;7.11;42.44;101214.11;1762444;80;20137;-66
2022/03/14 10:04:16;;;;;;;;;;;;;;;7.57;39.84;101219.59;1760121;81;21142;-66
2022/03/14 10:06:44;;;;;;;;;;;;;;;7.58;38.04;101219.34;1760691;80;20425;-66
2022/03/14 10:09:13;;;;;;;;;;;;;;;7.35;38.88;101217.44;1759686;81;20130;-65
2022/03/14 10:11:41;;;;;;;;;;;;;;;7.23;38.56;101212.09;1759730;81;20134;-65
2022/03/14 10:14:08;;;;;;;;;;;;;;;7.18;39.36;101212.02;1780675;80;20160;-66
2022/03/14 10:16:35;;;;;;;;;;;;;;;7.20;38.81;101208.50;1789204;80;21748;-66
2022/03/14 10:19:07;;;;;;;;;;;;;;;7.21;39.78;101204.69;1768963;80;20094;-66
2022/03/14 10:21:37;;;;;;;;;;;;;;;7.26;38.99;101199.30;1761203;80;20221;-67
2022/03/14 10:24:06;;;;;;;;;;;;;;;7.33;40.03;101205.39;1797361;80;20092;-65
2022/03/14 10:26:33;;;;;;;;;;;;;;;7.46;38.93;101206.92;1794583;80;20174;-65
2022/03/14 10:29:10;;;;;;;;;;;;;;;7.43;37.98;101206.06;1781911;80;21260;-64
2022/03/14 10:31:45;;;;;;;;;;;;;;;7.21;37.96;101200.05;1796959;80;20461;-65
2022/03/14 10:34:18;;;;;;;;;;;;;;;7.10;38.72;101201.53;1790732;80;20148;-65
2022/03/14 10:36:49;;;;;;;;;;;;;;;7.14;39.87;101189.86;1776739;79;20446;-66
2022/03/14 10:39:18;;;;;;;;;;;;;;;7.37;38.78;101192.05;1795390;79;20434;-65
2022/03/14 10:42:07;;;;;;;;;;;;;;;7.47;38.84;101190.81;1812701;79;21143;-67
2022/03/14 10:44:36;;;;;;;;;;;;;;;7.62;39.27;101189.05;1814063;79;20481;-65
2022/03/14 10:47:08;;;;;;;;;;;;;;;7.78;37.88;101197.42;1814001;79;20402;-66
2022/03/14 10:49:40;;;;;;;;;;;;;;;7.71;37.48;101189.42;1814003;79;20161;-65
2022/03/14 10:52:14;;;;;;;;;;;;;;;7.85;37.99;101179.73;1812915;79;20075;-66
2022/03/14 10:54:40;;;;;;;;;;;;;;;8.17;37.06;101178.92;1813997;79;21174;-66
2022/03/14 10:57:30;;;;;;;;;;;;;;;8.13;36.68;101169.04;1785925;80;20146;-67
2022/03/14 11:00:02;;;;;;;;;;;;;;;7.99;39.13;101162.37;1747997;80;20134;-67
2022/03/14 11:02:33;;;;;;;;;;;;;;;8.32;37.76;101168.65;1775510;80;20527;-67
2022/03/14 11:05:05;;;;;;;;;;;;;;;8.46;35.99;101161.14;1772795;81;20152;-68
2022/03/14 11:07:35;;;;;;;;;;;;;;;8.19;36.39;101157.59;1771922;80;21108;-68
2022/03/14 11:10:06;;;;;;;;;;;;;;;8.05;38.60;101150.40;1771904;81;20101;-70
2022/03/14 11:12:33;;;;;;;;;;;;;;;8.04;36.65;101144.64;1772351;80;20134;-69
2022/03/14 11:15:07;;;;;;;;;;;;;;;7.81;36.30;101143.06;1784136;80;20175;-68
2022/03/14 11:17:36;;;;;;;;;;;;;;;7.58;36.52;101144.73;1786100;80;20148;-67
2022/03/14 11:20:08;;;;;;;;;;;;;;;7.38;38.27;101145.89;1786231;80;21251;-67
2022/03/14 11:22:36;;;;;;;;;;;;;;;7.54;38.50;101138.13;1808845;79;20296;-65
2022/03/14 11:25:09;;;;;;;;;;;;;;;7.91;37.81;101126.75;1750635;80;20163;-66
2022/03/14 11:27:38;;;;;;;;;;;;;;;8.20;36.66;101123.69;1776520;80;20137;-65
2022/03/14 11:30:08;;;;;;;;;;;;;;;8.37;36.83;101126.31;1749931;81;20145;-65
2022/03/14 11:32:42;;;;;;;;;;;;;;;8.44;36.40;101115.42;1776528;81;21756;-66
2022/03/14 11:35:08;;;;;;;;;;;;;;;8.48;35.54;101124.75;1785791;80;20092;-65
2022/03/14 11:37:45;;;;;;;;;;;;;;;8.36;35.53;101110.44;1787166;80;20132;-64
2022/03/14 11:40:10;;;;;;;;;;;;;;;8.23;36.22;101113.05;1782693;80;20123;-66
2022/03/14 11:42:40;;;;;;;;;;;;;;;8.37;37.14;101115.36;1792199;80;20167;-65
2022/03/14 11:45:13;;;;;;;;;;;;;;;8.59;36.57;101101.83;1760396;80;20120;-65
2022/03/14 11:47:44;;;;;;;;;;;;;;;8.78;37.00;101108.20;1767767;79;20122;-66
2022/03/14 11:50:13;;;;;;;;;;;;;;;9.01;35.99;101107.77;1784362;80;20120;-66
2022/03/14 11:52:43;;;;;;;;;;;;;;;9.04;35.72;101105.88;1805690;78;20102;-66
2022/03/14 11:55:28;;;;;;;;;;;;;;;9.05;35.87;101099.84;1794420;79;20133;-68
2022/03/14 11:57:52;;;;;;;;;;;;;;;9.19;35.03;101107.84;1811472;79;21261;-69
2022/03/14 12:00:27;;;;;;;;;;;;;;;9.05;34.57;101093.82;1798817;79;20106;-71
2022/03/14 12:02:56;;;;;;;;;;;;;;;8.89;34.81;101103.88;1802128;77;20111;-70
2022/03/14 12:05:40;;;;;;;;;;;;;;;8.86;35.17;101097.57;1816311;77;20183;-74
2022/03/14 12:08:17;;;;;;;;;;;;;;;8.98;34.99;101104.20;1737990;82;20154;-79
2022/03/14 12:10:51;;;;;;;;;;;;;;;9.02;35.61;101091.62;1759236;81;20114;-71
2022/03/14 12:13:42;;;;;;;;;;;;;;;9.11;35.70;101101.52;1763765;80;20189;-71
2022/03/14 12:16:39;;;;;;;;;;;;;;;9.21;36.00;101098.27;1777237;80;20112;-75
2022/03/14 12:19:31;;;;;;;;;;;;;;;9.35;35.38;101090.33;1759493;80;20131;-73
2022/03/14 12:22:07;;;;;;;;;;;;;;;9.55;34.72;101092.30;1791482;80;20092;-76
2022/03/14 12:24:42;;;;;;;;;;;;;;;9.68;33.84;101091.77;1786481;80;21269;-74
2022/03/14 12:27:33;;;;;;;;;;;;;;;9.78;33.77;101082.19;1786372;80;20123;-77
2022/03/14 12:30:05;;;;;;;;;;;;;;;9.93;34.13;101082.72;1786361;80;20187;-73
2022/03/14 12:32:39;;;;;;;;;;;;;;;10.16;33.69;101081.34;1786518;80;20128;-69
2022/03/14 12:35:11;;;;;;;;;;;;;;;10.42;33.42;101088.45;1785106;80;20088;-70
2022/03/14 12:38:08;;;;;;;;;;;;;;;10.47;33.15;101085.70;1775703;80;21166;-67
2022/03/14 12:40:40;;;;;;;;;;;;;;;10.48;32.71;101077.73;1731860;80;20158;-66
2022/03/14 12:43:22;;;;;;;;;;;;;;;10.32;32.20;101079.44;1764544;80;20146;-67
2022/03/14 12:46:00;;;;;;;;;;;;;;;10.29;34.20;101072.58;1779553;80;20612;-81
2022/03/14 12:48:38;;;;;;;;;;;;;;;10.80;31.96;101062.82;1769137;80;20143;-72
2022/03/14 12:51:11;;;;;;;;;;;;;;;11.02;31.66;101075.62;1755132;81;21145;-67